Time;durP1;ratioP1;P1;durP2;ratioP2;P2;SDS_P1;SDS_P2;PMS_P1;PMS_P2;Temp;Humidity;BMP_temperature;BMP_pressure;BME280_temperature;BME280_humidity;BME280_pressure;Samples;Min_cycle;Max_cycle;Signal;HPM_P1;HPM_P2
2023/03/06 00:01:00;;;;;;;11.10;6.87;;;7.10;99.90;;;;;;7387953;19;20142;-74
2023/03/06 00:03:27;;;;;;;11.73;6.80;;;7.10;99.90;;;;;;7388726;19;20185;-74
2023/03/06 00:05:57;;;;;;;11.57;6.73;;;7.10;99.90;;;;;;7389116;19;20141;-75
2023/03/06 00:08:25;;;;;;;11.60;6.40;;;7.10;99.90;;;;;;7389537;19;20134;-76
2023/03/06 00:10:51;;;;;;;12.53;6.47;;;7.10;99.90;;;;;;7389548;19;20161;-75
2023/03/06 00:13:18;;;;;;;12.00;6.47;;;7.10;99.90;;;;;;7388817;19;20139;-76
2023/03/06 00:15:45;;;;;;;11.47;6.57;;;6.90;99.90;;;;;;7387759;19;20138;-76
2023/03/06 00:18:11;;;;;;;12.00;7.03;;;6.80;99.90;;;;;;7389406;19;20146;-75
2023/03/06 00:20:39;;;;;;;13.23;6.97;;;6.90;99.90;;;;;;7388677;19;20175;-75
2023/03/06 00:23:05;;;;;;;13.43;7.63;;;7.00;99.90;;;;;;7386622;19;20177;-76
2023/03/06 00:25:33;;;;;;;12.97;7.03;;;6.90;99.90;;;;;;7386914;19;20201;-75
2023/03/06 00:27:59;;;;;;;13.80;8.10;;;6.90;99.90;;;;;;7388786;19;20143;-75
2023/03/06 00:30:25;;;;;;;14.90;7.70;;;6.90;99.90;;;;;;7388970;19;20489;-75
2023/03/06 00:32:52;;;;;;;15.13;8.20;;;7.00;99.90;;;;;;7388553;19;20141;-76
2023/03/06 00:35:17;;;;;;;15.20;7.37;;;6.90;99.90;;;;;;7390459;19;20159;-75
2023/03/06 00:37:44;;;;;;;15.20;7.57;;;6.90;99.90;;;;;;7387927;19;20151;-75
2023/03/06 00:40:14;;;;;;;11.97;7.17;;;6.90;99.90;;;;;;7387841;19;20154;-75
2023/03/06 00:42:40;;;;;;;11.80;7.17;;;6.80;99.90;;;;;;7385272;19;20154;-74
2023/03/06 00:45:06;;;;;;;13.83;7.60;;;6.90;99.90;;;;;;7386172;19;20626;-76
2023/03/06 00:47:32;;;;;;;13.57;7.87;;;6.90;99.90;;;;;;7386475;19;20167;-75
2023/03/06 00:49:59;;;;;;;14.77;7.57;;;6.90;99.90;;;;;;7389346;19;20130;-76
2023/03/06 00:52:25;;;;;;;11.90;7.73;;;6.90;99.90;;;;;;7387207;19;20161;-75
2023/03/06 00:54:52;;;;;;;11.57;6.90;;;6.90;99.90;;;;;;7385949;19;20143;-75
2023/03/06 00:57:19;;;;;;;12.80;7.40;;;6.90;99.90;;;;;;7386570;19;20906;-75
2023/03/06 00:59:45;;;;;;;14.53;7.40;;;6.80;99.90;;;;;;7387043;19;20261;-75
2023/03/06 01:02:11;;;;;;;13.40;7.20;;;6.90;99.90;;;;;;7385917;19;20214;-75
2023/03/06 01:04:37;;;;;;;13.50;7.30;;;6.90;99.90;;;;;;7385142;19;20178;-75
2023/03/06 01:07:03;;;;;;;11.77;6.87;;;6.90;99.90;;;;;;7388553;19;20221;-76
2023/03/06 01:09:30;;;;;;;14.60;8.00;;;7.00;99.90;;;;;;7387849;19;20173;-76
2023/03/06 01:11:56;;;;;;;12.63;6.83;;;7.00;99.90;;;;;;7388116;19;20158;-74
2023/03/06 01:14:22;;;;;;;13.43;7.43;;;6.90;99.90;;;;;;7387346;19;20649;-76
2023/03/06 01:16:49;;;;;;;13.10;7.27;;;6.90;99.90;;;;;;7388209;19;20158;-75
2023/03/06 01:19:15;;;;;;;12.43;7.17;;;6.90;99.90;;;;;;7382204;19;20162;-74
2023/03/06 01:21:40;;;;;;;14.03;7.43;;;7.00;99.90;;;;;;7386558;19;20163;-75
2023/03/06 01:24:06;;;;;;;12.00;7.13;;;6.90;99.90;;;;;;7386990;19;20222;-74
2023/03/06 01:26:33;;;;;;;13.00;7.20;;;6.90;99.90;;;;;;7382788;19;20138;-75
2023/03/06 01:29:00;;;;;;;14.33;7.17;;;6.90;99.90;;;;;;7387921;19;20139;-76
2023/03/06 01:31:25;;;;;;;12.97;7.37;;;6.90;99.90;;;;;;7386959;19;20158;-75
2023/03/06 01:33:52;;;;;;;11.60;7.27;;;6.90;99.90;;;;;;7387950;19;20154;-75
2023/03/06 01:36:18;;;;;;;16.43;7.30;;;6.90;99.90;;;;;;7386225;19;20146;-75
2023/03/06 01:38:44;;;;;;;13.00;7.47;;;6.90;99.90;;;;;;7385757;19;20546;-75
2023/03/06 01:41:14;;;;;;;13.73;7.63;;;6.90;99.90;;;;;;7384931;19;20880;-75
2023/03/06 01:43:45;;;;;;;14.60;6.93;;;6.80;99.90;;;;;;7386419;19;20154;-75
2023/03/06 01:46:27;;;;;;;17.10;7.70;;;6.90;99.90;;;;;;7385302;19;20151;-75
2023/03/06 01:48:58;;;;;;;14.30;7.63;;;6.90;99.90;;;;;;7388097;19;20218;-74
2023/03/06 01:51:30;;;;;;;11.83;6.90;;;6.80;99.90;;;;;;7386814;19;20135;-76
2023/03/06 01:53:58;;;;;;;13.37;7.40;;;6.80;99.90;;;;;;7387850;19;20154;-75
2023/03/06 01:56:24;;;;;;;12.77;7.03;;;6.90;99.90;;;;;;7395910;19;20437;-75
2023/03/06 01:58:51;;;;;;;12.40;6.73;;;6.90;99.90;;;;;;7392930;19;20173;-75
2023/03/06 02:01:18;;;;;;;12.00;6.63;;;6.90;99.90;;;;;;7391168;19;20495;-75
2023/03/06 02:03:46;;;;;;;13.13;6.67;;;6.80;99.90;;;;;;7391573;19;20150;-74
2023/03/06 02:06:18;;;;;;;9.67;6.00;;;6.90;99.90;;;;;;7394443;19;20127;-74
2023/03/06 02:08:46;;;;;;;11.63;6.97;;;6.90;99.90;;;;;;7391766;19;20139;-75
2023/03/06 02:11:23;;;;;;;12.30;6.33;;;6.80;99.90;;;;;;7393058;19;20135;-74
2023/03/06 02:13:51;;;;;;;9.20;5.87;;;6.70;99.90;;;;;;7390798;19;20505;-75
2023/03/06 02:16:22;;;;;;;9.70;5.67;;;6.60;99.90;;;;;;7394556;19;20141;-75
2023/03/06 02:18:49;;;;;;;11.67;6.77;;;6.40;99.90;;;;;;7393788;19;20507;-75
2023/03/06 02:21:26;;;;;;;11.17;6.07;;;6.60;99.90;;;;;;7388177;19;20505;-76
2023/03/06 02:24:06;;;;;;;8.90;5.60;;;6.70;99.90;;;;;;7388562;19;20130;-74
2023/03/06 02:26:34;;;;;;;12.77;5.50;;;6.80;99.90;;;;;;7393344;19;20150;-75
2023/03/06 02:29:00;;;;;;;9.90;5.60;;;6.80;99.90;;;;;;7393207;19;20226;-76
2023/03/06 02:31:29;;;;;;;10.67;6.00;;;6.70;99.90;;;;;;7391722;19;20151;-75
2023/03/06 02:34:13;;;;;;;10.73;5.90;;;6.70;99.90;;;;;;7392502;19;20139;-76
2023/03/06 02:36:46;;;;;;;11.03;5.80;;;6.80;99.90;;;;;;7390910;19;20230;-75
2023/03/06 02:39:17;;;;;;;8.90;5.80;;;6.70;99.90;;;;;;7391591;19;20186;-75
2023/03/06 02:41:43;;;;;;;9.43;5.63;;;6.60;99.90;;;;;;7389155;19;20194;-75
2023/03/06 02:44:09;;;;;;;9.43;6.00;;;6.60;99.90;;;;;;7391022;19;20143;-75
2023/03/06 02:46:34;;;;;;;10.23;5.83;;;6.70;99.90;;;;;;7389604;19;20138;-75
2023/03/06 02:49:00;;;;;;;10.80;6.20;;;6.70;99.90;;;;;;7392762;19;20583;-76
2023/03/06 02:51:26;;;;;;;10.10;6.43;;;6.70;99.90;;;;;;7390967;19;20637;-75
2023/03/06 02:53:52;;;;;;;9.17;6.30;;;6.60;99.90;;;;;;7391558;19;20135;-76
2023/03/06 02:56:18;;;;;;;11.37;6.07;;;6.70;99.90;;;;;;7393153;19;20127;-75
2023/03/06 02:58:45;;;;;;;10.37;6.00;;;6.50;99.90;;;;;;7390228;19;20147;-75
2023/03/06 03:01:10;;;;;;;10.03;6.10;;;6.60;99.90;;;;;;7389112;19;20144;-76
2023/03/06 03:03:36;;;;;;;9.43;5.63;;;6.70;99.90;;;;;;7388042;19;20174;-75
2023/03/06 03:06:06;;;;;;;10.73;6.53;;;6.70;99.90;;;;;;7391453;19;20139;-75
2023/03/06 03:08:33;;;;;;;9.83;5.87;;;6.70;99.90;;;;;;7389764;19;20146;-74
2023/03/06 03:11:00;;;;;;;9.90;5.73;;;6.70;99.90;;;;;;7392325;19;20266;-75
2023/03/06 03:13:25;;;;;;;13.10;6.40;;;6.70;99.90;;;;;;7388799;19;20145;-76
2023/03/06 03:16:03;;;;;;;11.57;6.50;;;6.70;99.90;;;;;;7391754;19;20135;-75
2023/03/06 03:18:29;;;;;;;9.97;5.80;;;6.70;99.90;;;;;;7390183;19;20154;-75
2023/03/06 03:20:55;;;;;;;10.67;6.93;;;6.60;99.90;;;;;;7390641;19;20147;-76
2023/03/06 03:23:21;;;;;;;13.40;7.63;;;6.60;99.90;;;;;;7390978;19;20144;-74
2023/03/06 03:25:47;;;;;;;10.93;7.80;;;6.60;99.90;;;;;;7389824;19;20151;-77
2023/03/06 03:28:12;;;;;;;13.17;7.27;;;6.70;99.90;;;;;;7388830;19;20134;-76
2023/03/06 03:30:40;;;;;;;20.03;7.53;;;6.80;99.90;;;;;;7392307;19;20827;-75
2023/03/06 03:33:06;;;;;;;13.13;7.30;;;6.90;99.90;;;;;;7387594;19;20135;-75
2023/03/06 03:35:32;;;;;;;16.17;9.50;;;6.70;99.90;;;;;;7390131;19;20154;-75
2023/03/06 03:37:58;;;;;;;18.87;10.73;;;6.60;99.90;;;;;;7389191;19;20517;-76
2023/03/06 03:40:23;;;;;;;20.07;12.33;;;6.60;99.90;;;;;;7384350;19;20158;-76
2023/03/06 03:42:49;;;;;;;20.03;13.57;;;6.70;99.90;;;;;;7387405;19;20198;-77
2023/03/06 03:45:15;;;;;;;25.23;15.97;;;6.60;99.90;;;;;;7391105;19;20615;-75
2023/03/06 03:47:41;;;;;;;30.03;16.57;;;6.50;99.90;;;;;;7390219;19;20146;-77
2023/03/06 03:50:08;;;;;;;29.00;16.67;;;6.60;99.90;;;;;;7391166;19;20142;-77
2023/03/06 03:52:34;;;;;;;32.07;18.53;;;6.60;99.90;;;;;;7390531;19;20155;-76
2023/03/06 03:54:59;;;;;;;27.83;18.33;;;6.60;99.90;;;;;;7393811;19;20218;-76
2023/03/06 03:57:25;;;;;;;32.33;19.50;;;6.70;99.90;;;;;;7389066;19;20138;-75
2023/03/06 03:59:51;;;;;;;25.63;16.27;;;6.60;99.90;;;;;;7391056;19;20413;-75
2023/03/06 04:02:17;;;;;;;22.53;13.97;;;6.60;99.90;;;;;;7387351;19;20158;-77
2023/03/06 04:04:42;;;;;;;22.80;14.00;;;6.70;99.90;;;;;;7387429;19;20834;-76
2023/03/06 04:07:09;;;;;;;20.07;12.43;;;6.70;99.90;;;;;;7388071;19;20481;-76
2023/03/06 04:09:34;;;;;;;19.10;10.53;;;6.70;99.90;;;;;;7389334;19;20150;-76
2023/03/06 04:12:00;;;;;;;13.57;7.27;;;6.60;99.90;;;;;;7387704;19;20159;-77
2023/03/06 04:14:26;;;;;;;22.30;12.13;;;6.60;99.90;;;;;;7389066;19;20145;-77
2023/03/06 04:16:52;;;;;;;29.23;18.00;;;6.60;99.90;;;;;;7387670;19;20151;-76
2023/03/06 04:19:17;;;;;;;23.83;12.30;;;6.60;99.90;;;;;;7387285;19;20155;-76
2023/03/06 04:21:43;;;;;;;16.30;9.73;;;6.60;99.90;;;;;;7387949;19;20475;-78
2023/03/06 04:24:09;;;;;;;11.80;7.70;;;6.60;99.90;;;;;;7387359;19;20214;-76
2023/03/06 04:26:35;;;;;;;12.30;7.37;;;6.70;99.90;;;;;;7390471;19;20573;-78
2023/03/06 04:29:01;;;;;;;17.97;10.47;;;6.60;99.90;;;;;;7388144;19;20146;-77
2023/03/06 04:31:27;;;;;;;17.23;11.13;;;6.60;99.90;;;;;;7389298;19;20171;-77
2023/03/06 04:33:52;;;;;;;20.67;10.87;;;6.60;99.90;;;;;;7390451;19;20150;-77
2023/03/06 04:36:32;;;;;;;18.83;11.27;;;6.60;99.90;;;;;;7389082;19;20138;-76
2023/03/06 04:38:59;;;;;;;14.87;10.00;;;6.60;99.90;;;;;;7388896;19;20154;-76
2023/03/06 04:41:25;;;;;;;15.80;9.17;;;6.60;99.90;;;;;;7387350;19;20551;-76
2023/03/06 04:43:51;;;;;;;24.03;15.60;;;6.70;99.90;;;;;;7388647;19;20154;-76
2023/03/06 04:46:17;;;;;;;34.67;21.23;;;6.60;99.90;;;;;;7387435;19;20146;-77
2023/03/06 04:48:43;;;;;;;50.67;29.23;;;6.60;99.90;;;;;;7387902;19;20396;-76
2023/03/06 04:51:13;;;;;;;59.83;33.53;;;6.60;99.90;;;;;;7387602;19;20606;-77
2023/03/06 04:53:39;;;;;;;54.17;31.47;;;6.60;99.90;;;;;;7388074;19;20135;-77
2023/03/06 04:56:05;;;;;;;49.97;29.10;;;6.60;99.90;;;;;;7389157;19;20139;-76
2023/03/06 04:58:31;;;;;;;46.20;28.37;;;6.70;99.90;;;;;;7384106;19;20134;-77
2023/03/06 05:00:57;;;;;;;42.13;25.50;;;6.70;99.90;;;;;;7380035;19;20138;-77
2023/03/06 05:03:22;;;;;;;42.53;22.70;;;6.70;99.90;;;;;;7383788;19;20686;-77
2023/03/06 05:05:48;;;;;;;26.40;15.07;;;6.60;99.90;;;;;;7387639;19;20188;-76
2023/03/06 05:08:16;;;;;;;27.90;14.93;;;6.60;99.90;;;;;;7386988;19;20222;-77
2023/03/06 05:10:43;;;;;;;23.10;12.57;;;6.70;99.90;;;;;;7386509;19;20139;-77
2023/03/06 05:13:10;;;;;;;18.57;10.80;;;6.60;99.90;;;;;;7385873;19;20130;-77
2023/03/06 05:15:36;;;;;;;17.37;10.93;;;6.60;99.90;;;;;;7387782;19;20138;-78
2023/03/06 05:18:02;;;;;;;21.33;12.07;;;6.60;99.90;;;;;;7387902;19;20184;-77
2023/03/06 05:20:28;;;;;;;21.97;13.17;;;6.70;99.90;;;;;;7386202;19;20147;-77
2023/03/06 05:22:54;;;;;;;21.87;12.57;;;6.60;99.90;;;;;;7387030;19;20134;-78
2023/03/06 05:25:22;;;;;;;17.70;10.33;;;6.50;99.90;;;;;;7388329;19;20147;-77
2023/03/06 05:27:48;;;;;;;13.63;7.70;;;6.60;99.90;;;;;;7386849;19;20468;-76
2023/03/06 05:30:14;;;;;;;15.57;8.63;;;6.60;99.90;;;;;;7390985;19;20146;-77
2023/03/06 05:32:40;;;;;;;11.80;6.77;;;6.60;99.90;;;;;;7395485;19;20650;-77
2023/03/06 05:35:06;;;;;;;15.87;8.70;;;6.50;99.90;;;;;;7395034;19;20659;-77
2023/03/06 05:37:32;;;;;;;16.40;8.30;;;6.60;99.90;;;;;;7396195;19;20154;-77
2023/03/06 05:39:59;;;;;;;15.10;9.47;;;6.60;99.90;;;;;;7393348;19;20165;-78
2023/03/06 05:42:24;;;;;;;18.33;9.90;;;6.60;99.90;;;;;;7389963;19;20595;-77
2023/03/06 05:44:50;;;;;;;16.73;9.00;;;6.60;99.90;;;;;;7394397;19;20135;-77
2023/03/06 05:47:16;;;;;;;12.83;7.53;;;6.50;99.90;;;;;;7393141;19;20450;-78
2023/03/06 05:49:42;;;;;;;11.17;7.17;;;6.40;99.90;;;;;;7394825;19;20156;-76
2023/03/06 05:52:08;;;;;;;14.77;7.20;;;6.40;99.90;;;;;;7392699;19;20159;-77
2023/03/06 05:54:35;;;;;;;15.07;8.00;;;6.50;99.90;;;;;;7389320;19;20142;-77
2023/03/06 05:57:03;;;;;;;15.53;8.33;;;6.60;99.90;;;;;;7393197;19;20631;-76
2023/03/06 05:59:31;;;;;;;12.50;7.33;;;6.60;99.90;;;;;;7393735;19;20154;-76
2023/03/06 06:01:58;;;;;;;13.10;6.70;;;6.60;99.90;;;;;;7391094;19;20167;-77
2023/03/06 06:04:25;;;;;;;15.40;7.20;;;6.60;99.90;;;;;;7391394;19;20174;-75
2023/03/06 06:06:57;;;;;;;18.60;8.33;;;6.60;99.90;;;;;;7392956;19;20158;-76
2023/03/06 06:09:24;;;;;;;10.57;6.63;;;6.60;99.90;;;;;;7393589;19;20151;-75
2023/03/06 06:11:51;;;;;;;12.37;7.30;;;6.60;99.90;;;;;;7393388;19;20173;-75
2023/03/06 06:14:17;;;;;;;10.67;5.93;;;6.50;99.90;;;;;;7394244;19;20131;-76
2023/03/06 06:16:43;;;;;;;10.00;5.90;;;6.40;99.90;;;;;;7392317;19;20163;-76
2023/03/06 06:19:09;;;;;;;7.80;5.33;;;6.40;99.90;;;;;;7396650;19;20149;-77
2023/03/06 06:21:35;;;;;;;9.97;6.13;;;6.50;99.90;;;;;;7393110;19;20139;-76
2023/03/06 06:24:00;;;;;;;9.77;6.03;;;6.50;99.90;;;;;;7392297;19;20511;-77
2023/03/06 06:26:26;;;;;;;8.20;4.93;;;6.50;99.90;;;;;;7393536;19;20469;-76
2023/03/06 06:28:52;;;;;;;8.70;4.90;;;6.40;99.90;;;;;;7392195;19;20141;-76
2023/03/06 06:31:18;;;;;;;10.53;5.60;;;6.50;99.90;;;;;;7389834;19;20143;-76
2023/03/06 06:33:44;;;;;;;10.03;5.37;;;6.50;99.90;;;;;;7393668;19;20159;-76
2023/03/06 06:36:15;;;;;;;11.27;5.50;;;6.60;99.90;;;;;;7389150;19;20128;-75
2023/03/06 06:38:41;;;;;;;7.97;5.00;;;6.60;99.90;;;;;;7392242;19;20595;-77
2023/03/06 06:41:07;;;;;;;9.87;5.30;;;6.50;99.90;;;;;;7390935;19;20144;-80
2023/03/06 06:43:32;;;;;;;12.53;5.53;;;6.50;99.90;;;;;;7390123;19;20143;-76
2023/03/06 06:45:58;;;;;;;7.37;5.13;;;6.50;99.90;;;;;;7390724;19;20151;-76
2023/03/06 06:48:24;;;;;;;9.87;5.67;;;6.50;99.90;;;;;;7390031;19;20805;-75
2023/03/06 06:50:57;;;;;;;8.43;5.00;;;6.50;99.90;;;;;;7391194;19;20151;-76
2023/03/06 06:53:23;;;;;;;9.63;5.77;;;6.50;99.90;;;;;;7393015;19;20142;-76
2023/03/06 06:55:49;;;;;;;14.90;6.33;;;6.70;99.90;;;;;;7391073;19;20597;-76
2023/03/06 06:58:16;;;;;;;12.17;5.77;;;6.60;99.90;;;;;;7391334;19;20630;-76
2023/03/06 07:00:42;;;;;;;9.47;5.17;;;6.60;99.90;;;;;;7388238;19;20154;-75
2023/03/06 07:03:11;;;;;;;11.03;5.60;;;6.60;99.90;;;;;;7390638;19;20142;-77
2023/03/06 07:05:37;;;;;;;9.87;5.90;;;6.70;99.90;;;;;;7391311;19;20142;-77
2023/03/06 07:08:06;;;;;;;12.70;5.30;;;6.70;99.90;;;;;;7392293;19;20141;-77
2023/03/06 07:10:32;;;;;;;10.47;6.00;;;6.70;99.90;;;;;;7393424;19;20143;-77
2023/03/06 07:13:00;;;;;;;10.87;6.30;;;6.80;99.90;;;;;;7390961;19;20135;-76
2023/03/06 07:15:28;;;;;;;10.90;6.20;;;6.80;99.90;;;;;;7391806;19;20142;-77
2023/03/06 07:17:54;;;;;;;12.40;5.70;;;6.70;99.90;;;;;;7390345;19;20146;-76
2023/03/06 07:20:20;;;;;;;14.27;6.20;;;6.70;99.90;;;;;;7390560;19;20131;-76
2023/03/06 07:22:46;;;;;;;11.40;5.57;;;6.60;99.90;;;;;;7391927;19;20745;-75
2023/03/06 07:25:12;;;;;;;8.67;5.67;;;6.70;99.90;;;;;;7392141;19;20195;-76
2023/03/06 07:27:38;;;;;;;10.20;6.10;;;6.80;99.90;;;;;;7390162;19;20805;-76
2023/03/06 07:30:05;;;;;;;11.37;7.13;;;6.50;99.90;;;;;;7388894;19;20130;-75
2023/03/06 07:32:30;;;;;;;10.17;5.73;;;6.60;99.90;;;;;;7389280;19;20134;-75
2023/03/06 07:34:56;;;;;;;10.57;5.40;;;6.60;99.90;;;;;;7389825;19;20194;-76
2023/03/06 07:37:26;;;;;;;8.60;5.67;;;6.60;99.90;;;;;;7391690;19;20131;-75
2023/03/06 07:39:52;;;;;;;12.50;6.27;;;6.60;99.90;;;;;;7390688;19;20139;-75
2023/03/06 07:42:18;;;;;;;8.50;5.30;;;6.70;99.90;;;;;;7388807;19;20135;-74
2023/03/06 07:44:43;;;;;;;9.17;5.47;;;6.70;99.90;;;;;;7390579;19;20139;-75
2023/03/06 07:47:11;;;;;;;11.17;5.77;;;6.50;99.90;;;;;;7391406;19;20138;-75
2023/03/06 07:49:37;;;;;;;10.27;5.87;;;6.60;99.90;;;;;;7391452;19;20625;-74
2023/03/06 07:52:03;;;;;;;12.07;5.53;;;6.60;99.90;;;;;;7387485;19;20146;-75
2023/03/06 07:54:29;;;;;;;8.47;5.40;;;6.50;99.90;;;;;;7389984;19;20514;-75
2023/03/06 07:56:55;;;;;;;8.90;4.90;;;6.70;99.90;;;;;;7390083;19;20191;-76
2023/03/06 07:59:21;;;;;;;9.57;5.60;;;6.80;99.90;;;;;;7392226;19;20140;-75
2023/03/06 08:01:47;;;;;;;7.63;4.90;;;6.80;99.90;;;;;;7387269;19;20210;-75
2023/03/06 08:04:12;;;;;;;11.20;5.90;;;6.50;99.90;;;;;;7387041;19;21089;-76
2023/03/06 08:06:38;;;;;;;8.33;5.60;;;6.50;99.90;;;;;;7388807;19;20173;-75
2023/03/06 08:09:04;;;;;;;8.50;5.17;;;6.80;99.90;;;;;;7390020;19;20699;-75
2023/03/06 08:11:30;;;;;;;10.63;5.77;;;7.00;99.90;;;;;;7388422;19;20468;-76
2023/03/06 08:13:57;;;;;;;12.20;5.00;;;7.10;99.90;;;;;;7391154;19;20613;-76
2023/03/06 08:16:25;;;;;;;8.70;5.20;;;7.00;99.90;;;;;;7391819;19;20172;-75
2023/03/06 08:18:51;;;;;;;11.37;6.00;;;7.00;99.90;;;;;;7388872;19;20135;-78
2023/03/06 08:21:20;;;;;;;13.27;5.93;;;7.10;99.90;;;;;;7388095;19;20503;-77
2023/03/06 08:23:46;;;;;;;9.17;5.73;;;6.80;99.90;;;;;;7387375;19;20162;-77
2023/03/06 08:26:18;;;;;;;9.47;5.37;;;6.80;99.90;;;;;;7389005;19;20143;-77
2023/03/06 08:28:44;;;;;;;8.33;5.07;;;6.90;99.90;;;;;;7391120;19;20146;-77
2023/03/06 08:31:32;;;;;;;8.33;4.97;;;7.00;99.90;;;;;;7392842;19;20150;-75
2023/03/06 08:34:00;;;;;;;9.50;5.53;;;7.20;99.90;;;;;;7391944;19;20549;-76
2023/03/06 08:36:26;;;;;;;10.03;5.47;;;7.10;99.90;;;;;;7388107;19;20178;-76
2023/03/06 08:38:52;;;;;;;7.13;4.40;;;7.30;99.90;;;;;;7390055;19;20451;-78
2023/03/06 08:41:18;;;;;;;7.17;4.73;;;7.20;99.90;;;;;;7388046;19;20157;-77
2023/03/06 08:43:45;;;;;;;7.63;4.40;;;7.30;99.90;;;;;;7391056;19;20154;-75
2023/03/06 08:46:11;;;;;;;7.40;5.00;;;7.30;99.90;;;;;;7387191;19;20259;-76
2023/03/06 08:48:38;;;;;;;8.93;5.07;;;7.20;99.90;;;;;;7387833;19;20209;-76
2023/03/06 08:51:04;;;;;;;11.33;5.60;;;7.30;99.90;;;;;;7388450;19;20717;-77
2023/03/06 08:53:30;;;;;;;7.43;4.50;;;7.30;99.90;;;;;;7390678;19;20247;-77
2023/03/06 08:55:56;;;;;;;5.77;3.90;;;7.40;99.90;;;;;;7390418;19;20143;-76
2023/03/06 08:58:22;;;;;;;8.27;4.57;;;7.30;99.90;;;;;;7386358;19;20624;-76
2023/03/06 09:00:50;;;;;;;7.93;4.97;;;7.50;99.90;;;;;;7387603;19;20141;-77
2023/03/06 09:03:17;;;;;;;5.67;3.93;;;7.60;99.90;;;;;;7384196;19;20185;-78
2023/03/06 09:05:46;;;;;;;6.90;4.70;;;7.70;99.90;;;;;;7389805;19;20146;-77
2023/03/06 09:08:12;;;;;;;8.70;5.23;;;7.30;99.90;;;;;;7390304;19;20697;-76
2023/03/06 09:10:38;;;;;;;9.87;5.07;;;7.30;99.90;;;;;;7389454;19;20176;-78
2023/03/06 09:13:03;;;;;;;8.52;4.97;;;7.50;99.90;;;;;;7385861;19;20413;-76
2023/03/06 09:15:29;;;;;;;6.33;4.10;;;7.80;99.90;;;;;;7388190;19;20135;-77
2023/03/06 09:17:55;;;;;;;8.07;4.30;;;7.80;99.90;;;;;;7387461;19;20145;-76
2023/03/06 09:20:21;;;;;;;12.53;4.47;;;7.90;99.90;;;;;;7387885;19;20642;-77
2023/03/06 09:22:47;;;;;;;8.30;4.10;;;7.90;99.90;;;;;;7389438;19;20230;-76
2023/03/06 09:25:19;;;;;;;6.17;4.13;;;7.80;99.90;;;;;;7388164;19;20125;-77
2023/03/06 09:27:47;;;;;;;6.20;4.23;;;7.90;99.90;;;;;;7393914;19;20146;-74
2023/03/06 09:30:14;;;;;;;5.00;3.27;;;7.90;99.90;;;;;;7389814;19;20533;-78
2023/03/06 09:32:40;;;;;;;5.90;3.83;;;7.80;99.90;;;;;;7388109;19;20450;-77
2023/03/06 09:35:06;;;;;;;7.53;4.00;;;7.70;99.90;;;;;;7389626;19;20175;-77
2023/03/06 09:37:31;;;;;;;6.90;3.80;;;7.70;99.90;;;;;;7388800;19;20143;-77
2023/03/06 09:39:57;;;;;;;6.93;4.07;;;7.50;99.90;;;;;;7387850;19;20154;-77
2023/03/06 09:42:24;;;;;;;8.17;3.97;;;7.60;99.90;;;;;;7384482;19;20154;-77
2023/03/06 09:44:54;;;;;;;7.77;4.33;;;7.60;99.90;;;;;;7387813;19;20131;-79
2023/03/06 09:47:27;;;;;;;7.63;4.40;;;7.70;99.90;;;;;;7388486;19;20135;-78
2023/03/06 09:50:08;;;;;;;8.57;4.60;;;7.40;99.90;;;;;;7388393;19;20139;-78
2023/03/06 09:53:14;;;;;;;5.37;4.10;;;7.60;99.90;;;;;;7388283;19;20162;-79
2023/03/06 09:55:43;;;;;;;7.27;4.13;;;7.60;99.90;;;;;;7386811;19;20195;-78
2023/03/06 09:58:26;;;;;;;5.67;4.03;;;7.50;99.90;;;;;;7385239;19;20139;-79
2023/03/06 10:01:11;;;;;;;6.83;4.27;;;7.60;99.90;;;;;;7386791;19;20163;-78
2023/03/06 10:04:07;;;;;;;9.80;4.88;;;7.70;99.90;;;;;;7385482;19;20387;-77
2023/03/06 10:06:47;;;;;;;7.80;5.00;;;7.80;99.90;;;;;;7385161;19;20161;-79
2023/03/06 10:09:21;;;;;;;7.10;3.83;;;7.90;99.90;;;;;;7385740;19;20265;-78
2023/03/06 10:11:54;;;;;;;7.10;4.60;;;7.90;99.90;;;;;;7384774;19;20137;-76
2023/03/06 10:14:43;;;;;;;9.37;5.57;;;8.00;99.90;;;;;;7381303;19;20138;-76
2023/03/06 10:17:18;;;;;;;6.47;4.20;;;7.90;99.90;;;;;;7391438;19;20163;-76
2023/03/06 10:19:46;;;;;;;7.23;4.23;;;8.00;99.90;;;;;;7392590;19;20142;-76
2023/03/06 10:22:27;;;;;;;6.80;4.23;;;7.90;99.90;;;;;;7394267;19;20146;-74
2023/03/06 10:24:55;;;;;;;6.03;4.17;;;8.00;99.90;;;;;;7392939;19;20166;-77
2023/03/06 10:27:47;;;;;;;9.07;5.27;;;8.00;99.90;;;;;;7398695;19;20138;-76
2023/03/06 10:30:24;;;;;;;5.63;3.70;;;8.00;99.90;;;;;;7392376;19;20206;-75
2023/03/06 10:32:59;;;;;;;6.73;4.70;;;7.60;99.90;;;;;;7390053;19;20138;-75
2023/03/06 10:35:44;;;;;;;6.23;4.07;;;7.50;99.90;;;;;;7394536;19;20213;-77
2023/03/06 10:38:25;;;;;;;6.25;4.38;;;7.30;99.90;;;;;;7401927;19;20394;-75
2023/03/06 10:41:06;;;;;;;8.57;4.40;;;7.50;99.90;;;;;;7391700;19;20149;-76
2023/03/06 10:43:35;;;;;;;6.87;4.43;;;7.70;99.90;;;;;;7391583;19;20147;-76
2023/03/06 10:46:02;;;;;;;6.53;4.20;;;7.40;99.90;;;;;;7394116;19;20624;-75
2023/03/06 10:48:29;;;;;;;6.43;4.10;;;7.30;99.90;;;;;;7393562;19;20137;-75
2023/03/06 10:51:15;;;;;;;6.03;4.13;;;7.70;99.90;;;;;;7391522;19;20169;-77
2023/03/06 10:53:59;;;;;;;7.03;4.23;;;7.60;99.90;;;;;;7389620;19;20629;-77
2023/03/06 10:56:36;;;;;;;6.57;3.67;;;7.80;99.90;;;;;;7386171;19;20138;-77
2023/03/06 10:59:17;;;;;;;6.73;3.90;;;7.80;99.90;;;;;;7391149;19;20134;-76
2023/03/06 11:02:07;;;;;;;8.77;4.40;;;7.90;99.90;;;;;;7386710;19;20138;-75
2023/03/06 11:04:35;;;;;;;5.10;3.90;;;8.00;99.90;;;;;;7385922;19;20170;-75
2023/03/06 11:07:17;;;;;;;5.93;3.70;;;7.90;99.90;;;;;;7389684;19;20344;-76
2023/03/06 11:09:57;;;;;;;6.03;3.97;;;7.90;99.90;;;;;;7389376;19;20695;-73
2023/03/06 11:12:28;;;;;;;6.27;3.90;;;7.90;99.90;;;;;;7388521;19;20209;-75
2023/03/06 11:15:08;;;;;;;8.50;5.40;;;7.80;99.90;;;;;;7392880;19;20210;-74
2023/03/06 11:18:03;;;;;;;8.13;4.60;;;7.70;99.90;;;;;;7391322;19;20599;-75
2023/03/06 11:20:45;;;;;;;5.93;3.67;;;7.90;99.90;;;;;;7392378;19;20210;-75
2023/03/06 11:23:45;;;;;;;6.87;4.23;;;8.10;99.90;;;;;;7403320;19;20205;-75
2023/03/06 11:26:13;;;;;;;7.13;4.23;;;8.20;99.90;;;;;;7393304;19;20486;-76
2023/03/06 11:29:06;;;;;;;6.97;4.13;;;8.30;99.90;;;;;;7390373;19;20150;-77
2023/03/06 11:31:36;;;;;;;6.80;3.90;;;8.10;99.90;;;;;;7391405;19;20161;-77
2023/03/06 11:34:24;;;;;;;9.80;5.60;;;8.50;99.90;;;;;;7391041;19;20250;-75
2023/03/06 11:36:59;;;;;;;6.65;5.18;;;8.30;99.90;;;;;;7390701;19;20926;-75
2023/03/06 11:39:49;;;;;;;6.77;4.93;;;8.50;99.90;;;;;;7389322;19;20640;-75
2023/03/06 11:42:25;;;;;;;6.33;4.30;;;8.30;99.90;;;;;;7380461;19;20143;-76
2023/03/06 11:44:56;;;;;;;6.60;4.70;;;8.30;99.90;;;;;;7388964;19;20170;-74
2023/03/06 11:47:27;;;;;;;6.50;4.50;;;8.30;99.90;;;;;;7390293;19;20141;-73
2023/03/06 11:50:21;;;;;;;7.30;4.70;;;8.40;99.90;;;;;;7392153;19;20234;-73
2023/03/06 11:52:56;;;;;;;8.07;4.70;;;8.20;99.90;;;;;;7389376;19;20151;-76
2023/03/06 11:55:46;;;;;;;6.53;4.30;;;8.50;99.90;;;;;;7389053;19;20169;-75
2023/03/06 11:58:31;;;;;;;5.43;3.83;;;8.50;99.90;;;;;;7386995;19;20627;-74
2023/03/06 12:01:16;;;;;;;7.60;5.20;;;8.60;99.90;;;;;;7388917;19;20146;-73
2023/03/06 12:04:08;;;;;;;7.70;5.47;;;8.50;99.90;;;;;;7388253;19;20634;-72
2023/03/06 12:07:01;;;;;;;7.20;4.87;;;8.40;99.90;;;;;;7389803;19;20154;-74
2023/03/06 12:09:39;;;;;;;6.67;4.37;;;8.30;99.90;;;;;;7389908;19;20154;-74
2023/03/06 12:12:10;;;;;;;8.07;5.43;;;8.60;99.90;;;;;;7385236;19;20146;-72
2023/03/06 12:14:45;;;;;;;5.97;4.40;;;8.60;99.90;;;;;;7385869;19;20923;-71
2023/03/06 12:17:32;;;;;;;5.33;4.07;;;8.80;99.90;;;;;;7385059;19;20134;-71
2023/03/06 12:20:19;;;;;;;9.33;4.80;;;8.80;99.90;;;;;;7387487;19;20150;-72
2023/03/06 12:22:53;;;;;;;8.37;5.13;;;8.80;99.90;;;;;;7381456;19;20134;-74
2023/03/06 12:25:47;;;;;;;9.90;5.07;;;8.70;99.90;;;;;;7384674;19;20131;-73
2023/03/06 12:28:35;;;;;;;8.97;4.40;;;8.70;99.90;;;;;;7382602;19;20150;-74
2023/03/06 12:31:13;;;;;;;7.60;4.17;;;9.00;99.90;;;;;;7380093;19;20150;-73
2023/03/06 12:33:57;;;;;;;6.03;3.77;;;9.10;99.90;;;;;;7380907;19;20138;-74
2023/03/06 12:36:45;;;;;;;6.27;4.47;;;9.00;99.90;;;;;;7381208;19;20143;-74
2023/03/06 12:39:27;;;;;;;6.13;3.90;;;9.10;99.90;;;;;;7379367;19;20135;-74
2023/03/06 12:41:58;;;;;;;5.80;3.97;;;9.10;99.90;;;;;;7377501;19;20484;-75
2023/03/06 12:44:58;;;;;;;5.73;3.97;;;8.90;99.90;;;;;;7383533;19;20150;-74
2023/03/06 12:47:30;;;;;;;6.67;3.77;;;8.80;99.90;;;;;;7385297;19;20495;-73
2023/03/06 12:50:03;;;;;;;4.90;4.07;;;9.00;99.90;;;;;;7386435;19;20159;-73
2023/03/06 12:52:32;;;;;;;6.73;4.13;;;8.90;99.90;;;;;;7381314;19;20235;-73
2023/03/06 12:55:03;;;;;;;6.17;4.23;;;9.00;99.90;;;;;;7384287;19;20150;-72
2023/03/06 12:57:29;;;;;;;6.53;3.70;;;8.80;99.90;;;;;;7384239;19;20175;-72
2023/03/06 12:59:55;;;;;;;6.70;3.70;;;8.90;99.90;;;;;;7384947;19;20154;-72
2023/03/06 13:02:51;;;;;;;5.53;3.87;;;9.00;99.90;;;;;;7383818;19;20165;-73
2023/03/06 13:05:26;;;;;;;5.67;3.77;;;8.90;99.90;;;;;;7384035;19;20164;-72